Terminal Aerodrome Forecast
Issued by NWS Grand Forks, ND

Home | Current Version | Previous Version | Text Only | Print | Product List | Glossary Off
Versions: 1 2 3 4 5 6 7 8 9 10 11 12 13 14 15 16 17 18 19 20 21

000
FTUS43 KFGF 062332
TAFFAR
TAF
KFAR 062332Z 0700/0724 30028G37KT 1/4SM -SN BLSN OVC018
     FM071500 29020G30KT 2SM BLSN OVC025
     FM071600 29020G30KT 1 1/2SM BLSN OVC025=

USA.gov is the U.S. government's official web portal to all federal, state and local government web resources and services.